sensor_id;sensor_type;location;lat;lon;timestamp;pressure;altitude;pressure_sealevel;temperature;humidity
55490;BME280;44029;52.956;4.772;2023-04-26T00:01:12;101989.25;;;8.08;100.00
55490;BME280;44029;52.956;4.772;2023-04-26T00:03:39;101983.59;;;8.23;100.00
55490;BME280;44029;52.956;4.772;2023-04-26T00:06:04;101985.25;;;8.04;100.00
55490;BME280;44029;52.956;4.772;2023-04-26T00:08:33;101986.91;;;8.05;100.00
55490;BME280;44029;52.956;4.772;2023-04-26T00:10:58;101984.25;;;8.18;100.00
55490;BME280;44029;52.956;4.772;2023-04-26T00:13:24;101989.91;;;8.17;100.00
55490;BME280;44029;52.956;4.772;2023-04-26T00:15:49;101993.03;;;8.13;100.00
55490;BME280;44029;52.956;4.772;2023-04-26T00:18:15;101987.16;;;8.17;100.00
55490;BME280;44029;52.956;4.772;2023-04-26T00:20:41;101989.06;;;8.23;100.00
55490;BME280;44029;52.956;4.772;2023-04-26T00:23:07;101990.50;;;8.05;100.00
55490;BME280;44029;52.956;4.772;2023-04-26T00:25:34;101989.25;;;8.08;100.00
55490;BME280;44029;52.956;4.772;2023-04-26T00:27:59;101987.97;;;8.10;100.00
55490;BME280;44029;52.956;4.772;2023-04-26T00:30:25;101990.72;;;8.17;100.00
55490;BME280;44029;52.956;4.772;2023-04-26T00:32:50;101987.41;;;8.22;100.00
55490;BME280;44029;52.956;4.772;2023-04-26T00:35:16;101990.31;;;8.13;100.00
55490;BME280;44029;52.956;4.772;2023-04-26T00:37:41;101988.00;;;8.17;100.00
55490;BME280;44029;52.956;4.772;2023-04-26T00:40:07;101989.47;;;8.13;100.00
55490;BME280;44029;52.956;4.772;2023-04-26T00:42:33;101986.28;;;8.03;100.00
55490;BME280;44029;52.956;4.772;2023-04-26T00:44:58;101986.34;;;8.23;100.00
55490;BME280;44029;52.956;4.772;2023-04-26T00:47:24;101987.81;;;8.32;100.00
55490;BME280;44029;52.956;4.772;2023-04-26T00:49:50;101992.03;;;8.35;100.00
55490;BME280;44029;52.956;4.772;2023-04-26T00:52:15;101983.28;;;8.46;100.00
55490;BME280;44029;52.956;4.772;2023-04-26T00:54:41;101978.84;;;8.45;100.00
55490;BME280;44029;52.956;4.772;2023-04-26T00:57:07;101977.06;;;8.10;100.00
55490;BME280;44029;52.956;4.772;2023-04-26T00:59:34;101980.75;;;8.44;100.00
55490;BME280;44029;52.956;4.772;2023-04-26T01:02:02;101979.91;;;8.50;100.00
55490;BME280;44029;52.956;4.772;2023-04-26T01:04:28;101982.56;;;8.30;100.00
55490;BME280;44029;52.956;4.772;2023-04-26T01:06:55;101988.06;;;8.44;100.00
55490;BME280;44029;52.956;4.772;2023-04-26T01:09:21;101979.59;;;8.25;100.00
55490;BME280;44029;52.956;4.772;2023-04-26T01:11:47;101981.75;;;8.37;100.00
55490;BME280;44029;52.956;4.772;2023-04-26T01:14:14;101980.09;;;8.49;100.00
55490;BME280;44029;52.956;4.772;2023-04-26T01:16:40;101982.56;;;8.30;100.00
55490;BME280;44029;52.956;4.772;2023-04-26T01:19:09;101972.56;;;8.71;100.00
55490;BME280;44029;52.956;4.772;2023-04-26T01:21:37;101974.66;;;8.62;100.00
55490;BME280;44029;52.956;4.772;2023-04-26T01:24:03;101975.88;;;8.33;100.00
55490;BME280;44029;52.956;4.772;2023-04-26T01:26:29;101974.03;;;8.54;100.00
55490;BME280;44029;52.956;4.772;2023-04-26T01:28:55;101976.34;;;8.50;100.00
55490;BME280;44029;52.956;4.772;2023-04-26T01:31:20;101978.03;;;8.64;100.00
55490;BME280;44029;52.956;4.772;2023-04-26T01:33:46;101980.13;;;8.56;100.00
55490;BME280;44029;52.956;4.772;2023-04-26T01:36:11;101973.41;;;8.58;100.00
55490;BME280;44029;52.956;4.772;2023-04-26T01:38:37;101983.91;;;8.61;100.00
55490;BME280;44029;52.956;4.772;2023-04-26T01:41:02;101983.06;;;8.81;100.00
55490;BME280;44029;52.956;4.772;2023-04-26T01:43:28;101974.06;;;8.74;100.00
55490;BME280;44029;52.956;4.772;2023-04-26T01:45:53;101983.91;;;8.48;100.00
55490;BME280;44029;52.956;4.772;2023-04-26T01:48:18;101975.44;;;8.29;100.00
55490;BME280;44029;52.956;4.772;2023-04-26T01:50:44;101961.09;;;8.14;100.00
55490;BME280;44029;52.956;4.772;2023-04-26T01:53:09;101973.94;;;8.20;100.00
55490;BME280;44029;52.956;4.772;2023-04-26T01:55:35;101970.34;;;8.20;100.00
55490;BME280;44029;52.956;4.772;2023-04-26T01:58:00;101959.94;;;8.43;100.00
55490;BME280;44029;52.956;4.772;2023-04-26T02:00:27;101968.50;;;8.20;100.00
55490;BME280;44029;52.956;4.772;2023-04-26T02:02:54;101968.47;;;8.13;100.00
55490;BME280;44029;52.956;4.772;2023-04-26T02:05:20;101973.75;;;8.28;100.00
55490;BME280;44029;52.956;4.772;2023-04-26T02:07:45;101964.06;;;8.12;100.00
55490;BME280;44029;52.956;4.772;2023-04-26T02:10:11;101967.88;;;8.18;100.00
55490;BME280;44029;52.956;4.772;2023-04-26T02:12:36;101962.81;;;8.15;100.00
55490;BME280;44029;52.956;4.772;2023-04-26T02:15:01;101966.19;;;8.24;100.00
55490;BME280;44029;52.956;4.772;2023-04-26T02:17:27;101965.31;;;8.10;100.00
55490;BME280;44029;52.956;4.772;2023-04-26T02:19:53;101962.56;;;8.10;100.00
55490;BME280;44029;52.956;4.772;2023-04-26T02:22:19;101961.72;;;7.96;100.00
55490;BME280;44029;52.956;4.772;2023-04-26T02:24:45;101962.16;;;8.20;100.00
55490;BME280;44029;52.956;4.772;2023-04-26T02:27:11;101959.63;;;8.05;100.00
55490;BME280;44029;52.956;4.772;2023-04-26T02:29:36;101968.66;;;8.05;100.00
55490;BME280;44029;52.956;4.772;2023-04-26T02:32:02;101968.69;;;8.25;100.00
55490;BME280;44029;52.956;4.772;2023-04-26T02:34:28;101972.81;;;7.94;100.00
55490;BME280;44029;52.956;4.772;2023-04-26T02:36:53;101957.75;;;8.12;100.00
55490;BME280;44029;52.956;4.772;2023-04-26T02:39:18;101966.19;;;8.30;100.00
55490;BME280;44029;52.956;4.772;2023-04-26T02:41:45;101963.66;;;8.29;100.00
55490;BME280;44029;52.956;4.772;2023-04-26T02:44:10;101961.84;;;8.56;100.00
55490;BME280;44029;52.956;4.772;2023-04-26T02:46:36;101962.81;;;8.28;100.00
55490;BME280;44029;52.956;4.772;2023-04-26T02:49:01;101971.56;;;7.97;100.00
55490;BME280;44029;52.956;4.772;2023-04-26T02:51:27;101973.94;;;8.13;100.00
55490;BME280;44029;52.956;4.772;2023-04-26T02:53:52;101970.75;;;8.10;100.00
55490;BME280;44029;52.956;4.772;2023-04-26T02:56:17;101969.09;;;8.16;100.00
55490;BME280;44029;52.956;4.772;2023-04-26T02:58:43;101965.69;;;8.07;100.00
55490;BME280;44029;52.956;4.772;2023-04-26T03:01:09;101964.47;;;8.16;100.00
55490;BME280;44029;52.956;4.772;2023-04-26T03:03:34;101964.03;;;8.06;100.00
55490;BME280;44029;52.956;4.772;2023-04-26T03:06:01;101965.75;;;8.20;100.00
55490;BME280;44029;52.956;4.772;2023-04-26T03:08:26;101969.13;;;8.29;100.00
55490;BME280;44029;52.956;4.772;2023-04-26T03:10:51;101962.97;;;8.07;100.00
55490;BME280;44029;52.956;4.772;2023-04-26T03:13:17;101963.69;;;8.36;100.00
55490;BME280;44029;52.956;4.772;2023-04-26T03:15:45;101961.97;;;8.21;100.00
55490;BME280;44029;52.956;4.772;2023-04-26T03:18:11;101960.25;;;8.07;100.00
55490;BME280;44029;52.956;4.772;2023-04-26T03:20:36;101949.22;;;8.42;100.00
55490;BME280;44029;52.956;4.772;2023-04-26T03:23:01;101951.75;;;8.57;100.00
55490;BME280;44029;52.956;4.772;2023-04-26T03:25:27;101951.50;;;8.31;100.00
55490;BME280;44029;52.956;4.772;2023-04-26T03:27:52;101951.28;;;8.26;100.00
55490;BME280;44029;52.956;4.772;2023-04-26T03:30:19;101946.66;;;8.20;100.00
55490;BME280;44029;52.956;4.772;2023-04-26T03:32:44;101946.69;;;8.40;100.00
55490;BME280;44029;52.956;4.772;2023-04-26T03:35:10;101946.91;;;8.39;100.00
55490;BME280;44029;52.956;4.772;2023-04-26T03:37:35;101943.78;;;8.48;100.00
55490;BME280;44029;52.956;4.772;2023-04-26T03:40:05;101942.28;;;8.52;100.00
55490;BME280;44029;52.956;4.772;2023-04-26T03:42:32;101946.94;;;8.52;100.00
55490;BME280;44029;52.956;4.772;2023-04-26T03:44:57;101944.56;;;8.36;100.00
55490;BME280;44029;52.956;4.772;2023-04-26T03:47:23;101939.16;;;8.49;100.00
55490;BME280;44029;52.956;4.772;2023-04-26T03:49:48;101937.47;;;8.68;100.00
55490;BME280;44029;52.956;4.772;2023-04-26T03:52:13;101948.41;;;8.48;100.00
55490;BME280;44029;52.956;4.772;2023-04-26T03:54:39;101947.06;;;8.30;100.00
55490;BME280;44029;52.956;4.772;2023-04-26T03:57:04;101959.59;;;7.91;100.00
55490;BME280;44029;52.956;4.772;2023-04-26T03:59:30;101948.22;;;7.81;100.00
55490;BME280;44029;52.956;4.772;2023-04-26T04:01:55;101951.59;;;7.90;100.00
55490;BME280;44029;52.956;4.772;2023-04-26T04:04:20;101953.06;;;7.86;100.00
55490;BME280;44029;52.956;4.772;2023-04-26T04:06:46;101945.28;;;7.83;100.00
55490;BME280;44029;52.956;4.772;2023-04-26T04:09:11;101950.75;;;7.89;100.00
55490;BME280;44029;52.956;4.772;2023-04-26T04:11:37;101948.91;;;7.97;100.00
55490;BME280;44029;52.956;4.772;2023-04-26T04:14:02;101949.75;;;8.10;100.00
55490;BME280;44029;52.956;4.772;2023-04-26T04:16:27;101950.63;;;8.11;100.00
55490;BME280;44029;52.956;4.772;2023-04-26T04:18:53;101948.88;;;7.90;100.00
55490;BME280;44029;52.956;4.772;2023-04-26T04:21:18;101945.97;;;7.98;100.00
55490;BME280;44029;52.956;4.772;2023-04-26T04:23:43;101939.44;;;7.99;100.00
55490;BME280;44029;52.956;4.772;2023-04-26T04:26:09;101939.44;;;7.99;100.00
55490;BME280;44029;52.956;4.772;2023-04-26T04:28:37;101942.63;;;8.09;100.00
55490;BME280;44029;52.956;4.772;2023-04-26T04:31:03;101947.69;;;8.19;100.00
55490;BME280;44029;52.956;4.772;2023-04-26T04:33:29;101943.69;;;8.02;100.00
55490;BME280;44029;52.956;4.772;2023-04-26T04:35:54;101946.44;;;8.28;100.00
55490;BME280;44029;52.956;4.772;2023-04-26T04:38:19;101950.63;;;8.18;100.00
55490;BME280;44029;52.956;4.772;2023-04-26T04:40:48;101947.34;;;8.42;100.00
55490;BME280;44029;52.956;4.772;2023-04-26T04:43:16;101950.41;;;8.19;100.00
55490;BME280;44029;52.956;4.772;2023-04-26T04:45:42;101941.63;;;8.37;100.00
55490;BME280;44029;52.956;4.772;2023-04-26T04:48:07;101943.75;;;8.35;100.00
55490;BME280;44029;52.956;4.772;2023-04-26T04:50:35;101941.63;;;8.30;100.00
55490;BME280;44029;52.956;4.772;2023-04-26T04:53:01;101945.25;;;8.58;100.00
55490;BME280;44029;52.956;4.772;2023-04-26T04:55:27;101934.28;;;9.11;100.00
55490;BME280;44029;52.956;4.772;2023-04-26T04:57:53;101943.34;;;9.63;100.00
55490;BME280;44029;52.956;4.772;2023-04-26T05:00:18;101946.22;;;9.30;100.00
55490;BME280;44029;52.956;4.772;2023-04-26T05:02:44;101944.59;;;9.02;100.00
55490;BME280;44029;52.956;4.772;2023-04-26T05:05:10;101943.50;;;9.10;100.00
55490;BME280;44029;52.956;4.772;2023-04-26T05:07:35;101932.19;;;10.92;100.00
55490;BME280;44029;52.956;4.772;2023-04-26T05:10:01;101942.72;;;10.70;100.00
55490;BME280;44029;52.956;4.772;2023-04-26T05:12:26;101952.03;;;9.99;100.00
55490;BME280;44029;52.956;4.772;2023-04-26T05:14:52;101952.91;;;9.93;100.00
55490;BME280;44029;52.956;4.772;2023-04-26T05:17:17;101955.25;;;9.82;100.00
55490;BME280;44029;52.956;4.772;2023-04-26T05:19:42;101957.47;;;10.05;100.00
55490;BME280;44029;52.956;4.772;2023-04-26T05:22:08;101955.97;;;10.48;100.00
55490;BME280;44029;52.956;4.772;2023-04-26T05:24:33;101956.09;;;10.21;100.00
55490;BME280;44029;52.956;4.772;2023-04-26T05:26:59;101949.66;;;10.09;100.00
55490;BME280;44029;52.956;4.772;2023-04-26T05:29:28;101942.22;;;10.80;100.00
55490;BME280;44029;52.956;4.772;2023-04-26T05:31:54;101951.88;;;11.26;100.00
55490;BME280;44029;52.956;4.772;2023-04-26T05:34:19;101953.25;;;10.92;100.00
55490;BME280;44029;52.956;4.772;2023-04-26T05:36:45;101951.56;;;11.71;100.00
55490;BME280;44029;52.956;4.772;2023-04-26T05:39:10;101942.75;;;13.31;100.00
55490;BME280;44029;52.956;4.772;2023-04-26T05:41:36;101953.59;;;12.79;100.00
55490;BME280;44029;52.956;4.772;2023-04-26T05:44:02;101950.50;;;12.99;92.64
55490;BME280;44029;52.956;4.772;2023-04-26T05:46:27;101953.72;;;12.18;97.43
55490;BME280;44029;52.956;4.772;2023-04-26T05:48:53;101957.53;;;12.17;97.60
55490;BME280;44029;52.956;4.772;2023-04-26T05:51:19;101953.69;;;13.66;92.02
55490;BME280;44029;52.956;4.772;2023-04-26T05:53:45;101952.94;;;14.74;81.50
55490;BME280;44029;52.956;4.772;2023-04-26T05:56:10;101943.84;;;14.45;89.10
55490;BME280;44029;52.956;4.772;2023-04-26T05:58:35;101961.59;;;13.91;94.92
55490;BME280;44029;52.956;4.772;2023-04-26T06:01:01;101957.25;;;15.04;93.02
55490;BME280;44029;52.956;4.772;2023-04-26T06:03:26;101966.56;;;14.06;87.05
55490;BME280;44029;52.956;4.772;2023-04-26T06:05:52;101952.22;;;15.79;83.28
55490;BME280;44029;52.956;4.772;2023-04-26T06:08:17;101959.34;;;15.75;77.35
55490;BME280;44029;52.956;4.772;2023-04-26T06:10:42;101965.81;;;16.35;74.24
55490;BME280;44029;52.956;4.772;2023-04-26T06:13:08;101969.09;;;16.91;66.56
55490;BME280;44029;52.956;4.772;2023-04-26T06:15:33;101979.88;;;15.23;66.23
55490;BME280;44029;52.956;4.772;2023-04-26T06:17:58;101976.47;;;13.14;83.64
55490;BME280;44029;52.956;4.772;2023-04-26T06:20:24;101982.72;;;12.56;92.38
55490;BME280;44029;52.956;4.772;2023-04-26T06:22:50;101989.97;;;12.38;97.45
55490;BME280;44029;52.956;4.772;2023-04-26T06:25:15;101990.00;;;11.53;100.00
55490;BME280;44029;52.956;4.772;2023-04-26T06:27:41;101987.84;;;11.18;100.00
55490;BME280;44029;52.956;4.772;2023-04-26T06:30:07;101990.88;;;11.10;100.00
55490;BME280;44029;52.956;4.772;2023-04-26T06:32:33;102003.63;;;10.97;100.00
55490;BME280;44029;52.956;4.772;2023-04-26T06:34:58;101999.03;;;10.91;100.00
55490;BME280;44029;52.956;4.772;2023-04-26T06:37:24;101995.06;;;10.87;100.00
55490;BME280;44029;52.956;4.772;2023-04-26T06:39:49;101989.69;;;10.99;100.00
55490;BME280;44029;52.956;4.772;2023-04-26T06:42:14;101986.34;;;10.72;100.00
55490;BME280;44029;52.956;4.772;2023-04-26T06:44:40;101998.66;;;10.62;100.00
55490;BME280;44029;52.956;4.772;2023-04-26T06:47:06;101994.38;;;10.92;100.00
55490;BME280;44029;52.956;4.772;2023-04-26T06:49:34;101992.28;;;11.37;100.00
55490;BME280;44029;52.956;4.772;2023-04-26T06:51:59;101991.91;;;12.19;100.00
55490;BME280;44029;52.956;4.772;2023-04-26T06:54:28;101981.09;;;14.30;99.28
55490;BME280;44029;52.956;4.772;2023-04-26T06:56:54;101980.84;;;14.61;87.44
55490;BME280;44029;52.956;4.772;2023-04-26T06:59:20;101978.44;;;14.53;88.46
55490;BME280;44029;52.956;4.772;2023-04-26T07:01:45;101982.91;;;15.04;85.03
55490;BME280;44029;52.956;4.772;2023-04-26T07:04:10;101987.72;;;14.46;82.74
55490;BME280;44029;52.956;4.772;2023-04-26T07:06:37;101977.47;;;15.49;83.12
55490;BME280;44029;52.956;4.772;2023-04-26T07:09:03;101979.41;;;15.09;76.78
55490;BME280;44029;52.956;4.772;2023-04-26T07:11:29;101986.84;;;14.58;82.07
55490;BME280;44029;52.956;4.772;2023-04-26T07:13:55;101990.44;;;14.29;79.14
55490;BME280;44029;52.956;4.772;2023-04-26T07:16:21;101986.63;;;14.02;75.03
55490;BME280;44029;52.956;4.772;2023-04-26T07:18:46;101990.34;;;14.53;66.45
55490;BME280;44029;52.956;4.772;2023-04-26T07:21:14;102002.63;;;13.76;68.40
55490;BME280;44029;52.956;4.772;2023-04-26T07:23:40;102001.72;;;13.47;70.55
55490;BME280;44029;52.956;4.772;2023-04-26T07:26:05;102008.38;;;13.15;73.45
55490;BME280;44029;52.956;4.772;2023-04-26T07:28:31;102014.75;;;13.28;70.72
55490;BME280;44029;52.956;4.772;2023-04-26T07:30:58;102002.00;;;13.86;73.40
55490;BME280;44029;52.956;4.772;2023-04-26T07:33:24;102013.16;;;13.67;76.99
55490;BME280;44029;52.956;4.772;2023-04-26T07:35:53;102002.44;;;13.95;76.92
55490;BME280;44029;52.956;4.772;2023-04-26T07:38:22;102000.56;;;13.83;74.80
55490;BME280;44029;52.956;4.772;2023-04-26T07:40:48;102006.94;;;13.25;77.22
55490;BME280;44029;52.956;4.772;2023-04-26T07:43:14;102005.41;;;13.64;79.76
55490;BME280;44029;52.956;4.772;2023-04-26T07:45:40;102012.09;;;13.68;78.92
55490;BME280;44029;52.956;4.772;2023-04-26T07:48:06;102011.75;;;12.94;85.44
55490;BME280;44029;52.956;4.772;2023-04-26T07:50:32;102011.47;;;12.84;88.58
55490;BME280;44029;52.956;4.772;2023-04-26T07:52:57;102020.44;;;12.37;89.46
55490;BME280;44029;52.956;4.772;2023-04-26T07:55:23;102024.31;;;11.99;91.30
55490;BME280;44029;52.956;4.772;2023-04-26T07:57:48;102015.28;;;12.10;90.07
55490;BME280;44029;52.956;4.772;2023-04-26T08:00:14;102018.44;;;12.44;91.21
55490;BME280;44029;52.956;4.772;2023-04-26T08:02:41;102030.19;;;12.03;93.93
55490;BME280;44029;52.956;4.772;2023-04-26T08:05:07;102016.19;;;11.92;95.24
55490;BME280;44029;52.956;4.772;2023-04-26T08:07:33;102018.19;;;11.78;97.00
55490;BME280;44029;52.956;4.772;2023-04-26T08:09:58;102020.50;;;12.00;93.89
55490;BME280;44029;52.956;4.772;2023-04-26T08:12:23;102029.31;;;12.21;94.40
55490;BME280;44029;52.956;4.772;2023-04-26T08:14:49;102030.41;;;12.01;94.67
55490;BME280;44029;52.956;4.772;2023-04-26T08:17:14;102026.09;;;12.42;95.41
55490;BME280;44029;52.956;4.772;2023-04-26T08:19:40;102027.75;;;12.13;95.87
55490;BME280;44029;52.956;4.772;2023-04-26T08:22:06;102032.56;;;12.48;92.54
55490;BME280;44029;52.956;4.772;2023-04-26T08:24:31;102029.66;;;12.96;89.21
55490;BME280;44029;52.956;4.772;2023-04-26T08:26:57;102035.28;;;12.17;85.31
55490;BME280;44029;52.956;4.772;2023-04-26T08:29:23;102037.31;;;12.94;83.88
55490;BME280;44029;52.956;4.772;2023-04-26T08:31:49;102027.31;;;13.36;78.55
55490;BME280;44029;52.956;4.772;2023-04-26T08:34:14;102030.28;;;13.81;75.46
55490;BME280;44029;52.956;4.772;2023-04-26T08:36:40;102020.56;;;14.48;67.02
55490;BME280;44029;52.956;4.772;2023-04-26T08:39:08;102019.56;;;14.83;63.99
55490;BME280;44029;52.956;4.772;2023-04-26T08:41:41;102018.97;;;14.98;65.16
55490;BME280;44029;52.956;4.772;2023-04-26T08:44:08;102019.91;;;15.03;61.44
55490;BME280;44029;52.956;4.772;2023-04-26T08:46:39;102019.16;;;15.47;62.16
55490;BME280;44029;52.956;4.772;2023-04-26T08:49:18;102022.09;;;15.57;59.52
55490;BME280;44029;52.956;4.772;2023-04-26T08:51:46;102025.47;;;14.92;57.42
55490;BME280;44029;52.956;4.772;2023-04-26T08:54:13;102026.16;;;14.99;58.22
55490;BME280;44029;52.956;4.772;2023-04-26T08:56:40;102032.78;;;14.98;57.96
55490;BME280;44029;52.956;4.772;2023-04-26T08:59:08;102035.66;;;14.57;58.16
55490;BME280;44029;52.956;4.772;2023-04-26T09:01:34;102034.53;;;15.04;62.69
55490;BME280;44029;52.956;4.772;2023-04-26T09:04:01;102031.41;;;15.51;62.28
55490;BME280;44029;52.956;4.772;2023-04-26T09:06:27;102032.50;;;14.82;62.24
55490;BME280;44029;52.956;4.772;2023-04-26T09:08:54;102039.03;;;15.10;62.96
55490;BME280;44029;52.956;4.772;2023-04-26T09:11:20;102031.94;;;13.94;68.57
55490;BME280;44029;52.956;4.772;2023-04-26T09:13:46;102046.91;;;13.86;65.31
55490;BME280;44029;52.956;4.772;2023-04-26T09:16:11;102032.03;;;14.28;67.35
55490;BME280;44029;52.956;4.772;2023-04-26T09:18:46;102034.84;;;14.45;65.17
55490;BME280;44029;52.956;4.772;2023-04-26T09:21:13;102029.69;;;14.20;65.37
55490;BME280;44029;52.956;4.772;2023-04-26T09:24:00;102041.81;;;13.66;71.95
55490;BME280;44029;52.956;4.772;2023-04-26T09:26:29;102047.94;;;13.97;78.55
55490;BME280;44029;52.956;4.772;2023-04-26T09:29:13;102046.03;;;14.38;67.46
55490;BME280;44029;52.956;4.772;2023-04-26T09:31:44;102036.56;;;13.93;73.96
55490;BME280;44029;52.956;4.772;2023-04-26T09:34:11;102050.50;;;13.87;75.28
55490;BME280;44029;52.956;4.772;2023-04-26T09:36:56;102039.31;;;14.05;74.76
55490;BME280;44029;52.956;4.772;2023-04-26T09:39:31;102051.28;;;13.35;79.05
55490;BME280;44029;52.956;4.772;2023-04-26T09:41:57;102055.28;;;13.21;81.69
55490;BME280;44029;52.956;4.772;2023-04-26T09:44:24;102045.63;;;13.65;81.85
55490;BME280;44029;52.956;4.772;2023-04-26T09:47:03;102046.34;;;14.13;78.11
55490;BME280;44029;52.956;4.772;2023-04-26T09:49:46;102048.94;;;13.91;74.09
55490;BME280;44029;52.956;4.772;2023-04-26T09:52:14;102047.69;;;14.10;75.48
55490;BME280;44029;52.956;4.772;2023-04-26T09:54:46;102043.94;;;13.52;77.11
55490;BME280;44029;52.956;4.772;2023-04-26T09:57:13;102037.75;;;14.38;80.16
55490;BME280;44029;52.956;4.772;2023-04-26T09:59:43;102039.44;;;14.68;83.29
55490;BME280;44029;52.956;4.772;2023-04-26T10:02:29;102042.72;;;14.53;73.91
55490;BME280;44029;52.956;4.772;2023-04-26T10:04:55;102051.56;;;13.98;74.12
55490;BME280;44029;52.956;4.772;2023-04-26T10:07:22;102044.81;;;14.05;70.41
55490;BME280;44029;52.956;4.772;2023-04-26T10:09:49;102049.16;;;14.30;84.04
55490;BME280;44029;52.956;4.772;2023-04-26T10:12:16;102052.91;;;14.24;88.81
55490;BME280;44029;52.956;4.772;2023-04-26T10:14:43;102055.25;;;14.03;88.64
55490;BME280;44029;52.956;4.772;2023-04-26T10:17:09;102057.97;;;13.39;93.36
55490;BME280;44029;52.956;4.772;2023-04-26T10:19:37;102062.63;;;12.73;98.71
55490;BME280;44029;52.956;4.772;2023-04-26T10:22:15;102057.34;;;12.11;98.73
55490;BME280;44029;52.956;4.772;2023-04-26T10:24:43;102072.59;;;11.70;100.00
55490;BME280;44029;52.956;4.772;2023-04-26T10:27:09;102066.47;;;11.24;100.00
55490;BME280;44029;52.956;4.772;2023-04-26T10:32:18;102065.75;;;11.10;100.00
55490;BME280;44029;52.956;4.772;2023-04-26T10:34:44;102071.19;;;11.42;100.00
55490;BME280;44029;52.956;4.772;2023-04-26T10:37:29;102073.13;;;11.35;100.00
55490;BME280;44029;52.956;4.772;2023-04-26T10:45:43;102047.59;;;11.96;100.00
55490;BME280;44029;52.956;4.772;2023-04-26T10:48:20;102055.25;;;12.25;100.00
55490;BME280;44029;52.956;4.772;2023-04-26T10:53:26;102038.25;;;12.34;100.00
55490;BME280;44029;52.956;4.772;2023-04-26T10:55:51;102039.75;;;12.61;100.00
55490;BME280;44029;52.956;4.772;2023-04-26T11:01:15;102041.75;;;12.95;99.30
55490;BME280;44029;52.956;4.772;2023-04-26T11:03:42;102041.34;;;12.68;96.29
55490;BME280;44029;52.956;4.772;2023-04-26T11:06:09;102046.91;;;12.92;92.48
55490;BME280;44029;52.956;4.772;2023-04-26T11:08:39;102048.09;;;12.96;93.47
55490;BME280;44029;52.956;4.772;2023-04-26T11:11:11;102038.38;;;13.88;98.38
55490;BME280;44029;52.956;4.772;2023-04-26T11:13:39;102037.50;;;13.47;95.98
55490;BME280;44029;52.956;4.772;2023-04-26T11:16:09;102048.97;;;13.67;94.46
55490;BME280;44029;52.956;4.772;2023-04-26T11:18:38;102040.00;;;13.72;92.37
55490;BME280;44029;52.956;4.772;2023-04-26T11:21:05;102046.13;;;13.62;91.99
55490;BME280;44029;52.956;4.772;2023-04-26T11:23:31;102044.53;;;13.19;98.50
55490;BME280;44029;52.956;4.772;2023-04-26T11:26:02;102049.09;;;13.25;100.00
55490;BME280;44029;52.956;4.772;2023-04-26T11:28:28;102044.97;;;13.04;100.00
55490;BME280;44029;52.956;4.772;2023-04-26T11:30:53;102046.75;;;12.87;100.00
55490;BME280;44029;52.956;4.772;2023-04-26T11:33:20;102056.84;;;12.63;100.00
55490;BME280;44029;52.956;4.772;2023-04-26T11:35:49;102051.97;;;12.76;100.00
55490;BME280;44029;52.956;4.772;2023-04-26T11:38:15;102050.13;;;13.01;100.00
55490;BME280;44029;52.956;4.772;2023-04-26T11:40:41;102053.09;;;12.87;98.32
55490;BME280;44029;52.956;4.772;2023-04-26T11:43:08;102049.66;;;13.04;99.90
55490;BME280;44029;52.956;4.772;2023-04-26T11:45:35;102048.63;;;12.63;100.00
55490;BME280;44029;52.956;4.772;2023-04-26T11:48:03;102051.81;;;13.96;97.41
55490;BME280;44029;52.956;4.772;2023-04-26T11:50:30;102038.03;;;14.54;88.97
55490;BME280;44029;52.956;4.772;2023-04-26T11:52:59;102045.81;;;14.28;83.62
55490;BME280;44029;52.956;4.772;2023-04-26T11:55:31;102047.19;;;14.71;83.88
55490;BME280;44029;52.956;4.772;2023-04-26T11:57:59;102044.75;;;14.29;81.86
55490;BME280;44029;52.956;4.772;2023-04-26T12:00:25;102060.31;;;13.95;80.25
55490;BME280;44029;52.956;4.772;2023-04-26T12:02:51;102054.72;;;13.78;79.60
55490;BME280;44029;52.956;4.772;2023-04-26T12:05:24;102043.06;;;13.99;80.98
55490;BME280;44029;52.956;4.772;2023-04-26T12:07:55;102053.72;;;14.36;88.16
55490;BME280;44029;52.956;4.772;2023-04-26T12:10:35;102044.34;;;14.08;94.60
55490;BME280;44029;52.956;4.772;2023-04-26T12:13:01;102056.91;;;14.16;91.14
55490;BME280;44029;52.956;4.772;2023-04-26T12:15:29;102046.63;;;14.40;90.61
55490;BME280;44029;52.956;4.772;2023-04-26T12:18:02;102039.69;;;14.55;85.41
55490;BME280;44029;52.956;4.772;2023-04-26T12:20:31;102043.47;;;14.48;79.38
55490;BME280;44029;52.956;4.772;2023-04-26T12:23:07;102048.94;;;14.31;80.22
55490;BME280;44029;52.956;4.772;2023-04-26T12:25:35;102044.63;;;14.53;81.02
55490;BME280;44029;52.956;4.772;2023-04-26T12:28:03;102045.72;;;14.80;80.81
55490;BME280;44029;52.956;4.772;2023-04-26T12:30:29;102050.22;;;14.00;75.21
55490;BME280;44029;52.956;4.772;2023-04-26T12:32:55;102054.22;;;13.69;78.62
55490;BME280;44029;52.956;4.772;2023-04-26T12:35:22;102053.41;;;13.45;82.13
55490;BME280;44029;52.956;4.772;2023-04-26T12:37:48;102053.06;;;13.41;78.79
55490;BME280;44029;52.956;4.772;2023-04-26T12:40:15;102052.22;;;13.41;77.59
55490;BME280;44029;52.956;4.772;2023-04-26T12:42:40;102064.09;;;12.99;77.31
55490;BME280;44029;52.956;4.772;2023-04-26T12:45:06;102068.56;;;13.12;82.83
55490;BME280;44029;52.956;4.772;2023-04-26T12:47:32;102066.91;;;13.11;87.96
55490;BME280;44029;52.956;4.772;2023-04-26T12:49:58;102062.16;;;12.88;82.17
55490;BME280;44029;52.956;4.772;2023-04-26T12:52:25;102066.00;;;12.87;85.68
55490;BME280;44029;52.956;4.772;2023-04-26T12:54:51;102073.91;;;12.95;85.89
55490;BME280;44029;52.956;4.772;2023-04-26T12:57:16;102071.66;;;13.04;88.70
55490;BME280;44029;52.956;4.772;2023-04-26T12:59:42;102071.94;;;13.14;88.77